Time;durP1;ratioP1;P1;durP2;ratioP2;P2;SDS_P1;SDS_P2;PMS_P1;PMS_P2;Temp;Humidity;BMP_temperature;BMP_pressure;BME280_temperature;BME280_humidity;BME280_pressure;Samples;Min_cycle;Max_cycle;Signal;HPM_P1;HPM_P2
2022/04/11 00:01:26;;;;;;;7.20;6.33;;;10.20;58.80;;;;;;5075481;28;20472;-69
2022/04/11 00:03:53;;;;;;;7.03;6.27;;;10.20;58.80;;;;;;5075444;28;20433;-69
2022/04/11 00:06:20;;;;;;;6.53;5.90;;;10.10;58.70;;;;;;5075513;28;20453;-69
2022/04/11 00:08:47;;;;;;;6.33;5.83;;;10.20;58.60;;;;;;5074985;28;20476;-69
2022/04/11 00:11:14;;;;;;;7.33;6.30;;;10.10;58.40;;;;;;5075396;28;20475;-69
2022/04/11 00:13:42;;;;;;;7.03;6.33;;;10.10;58.60;;;;;;5075264;28;20449;-69
2022/04/11 00:16:09;;;;;;;6.10;5.50;;;10.00;58.70;;;;;;5075230;28;20502;-69
2022/04/11 00:18:37;;;;;;;6.27;5.67;;;10.00;59.20;;;;;;5074926;28;20456;-69
2022/04/11 00:21:04;;;;;;;7.70;6.90;;;10.00;59.00;;;;;;5075181;28;20472;-69
2022/04/11 00:23:31;;;;;;;7.50;6.80;;;10.00;59.10;;;;;;5075074;28;20471;-69
2022/04/11 00:25:58;;;;;;;7.70;6.83;;;10.00;59.40;;;;;;5074969;28;20463;-69
2022/04/11 00:28:25;;;;;;;7.10;6.40;;;10.00;59.90;;;;;;5074588;28;21068;-69
2022/04/11 00:30:53;;;;;;;7.40;6.40;;;9.90;61.00;;;;;;5074056;28;20476;-69
2022/04/11 00:33:20;;;;;;;6.80;5.80;;;9.90;61.30;;;;;;5074755;28;20453;-69
2022/04/11 00:35:47;;;;;;;6.97;6.37;;;9.90;61.80;;;;;;5074938;28;20433;-69
2022/04/11 00:38:14;;;;;;;7.47;6.77;;;9.80;62.10;;;;;;5075110;28;20552;-69
2022/04/11 00:40:40;;;;;;;6.73;6.10;;;9.80;62.50;;;;;;5074742;28;20456;-69
2022/04/11 00:43:07;;;;;;;7.17;6.53;;;9.80;62.60;;;;;;5075198;28;20448;-69
2022/04/11 00:45:34;;;;;;;7.53;6.40;;;9.80;63.30;;;;;;5074911;28;20440;-69
2022/04/11 00:48:03;;;;;;;9.77;6.63;;;9.80;63.90;;;;;;5074730;28;20547;-69
2022/04/11 00:50:30;;;;;;;10.40;6.40;;;9.70;64.30;;;;;;5074763;28;20499;-69
2022/04/11 00:53:00;;;;;;;7.73;5.93;;;9.70;64.30;;;;;;5074650;28;20452;-69
2022/04/11 00:55:27;;;;;;;7.50;5.60;;;9.70;64.50;;;;;;5080895;28;20452;-68
2022/04/11 00:57:54;;;;;;;14.63;7.40;;;9.70;64.80;;;;;;5090973;28;20483;-68
2022/04/11 01:00:21;;;;;;;9.63;5.90;;;9.70;65.30;;;;;;5090902;28;20471;-68
2022/04/11 01:02:48;;;;;;;7.80;6.70;;;9.60;65.30;;;;;;5090314;28;20468;-68
2022/04/11 01:05:16;;;;;;;8.43;6.40;;;9.60;65.70;;;;;;5089919;28;20453;-67
2022/04/11 01:07:42;;;;;;;6.80;6.10;;;9.60;65.90;;;;;;5090146;28;20445;-67
2022/04/11 01:10:10;;;;;;;7.67;6.87;;;9.60;66.30;;;;;;5090337;28;20986;-68
2022/04/11 01:12:37;;;;;;;7.27;6.57;;;9.50;66.50;;;;;;5090233;28;20456;-68
2022/04/11 01:15:04;;;;;;;12.53;6.70;;;9.50;66.80;;;;;;5090670;28;20448;-68
2022/04/11 01:17:34;;;;;;;10.67;7.63;;;9.50;66.80;;;;;;5090060;28;20866;-68
2022/04/11 01:20:07;;;;;;;8.03;6.60;;;9.50;66.90;;;;;;5090142;28;20453;-69
2022/04/11 01:22:35;;;;;;;8.27;7.47;;;9.50;66.80;;;;;;5089614;28;20469;-69
2022/04/11 01:25:03;;;;;;;9.73;7.63;;;9.50;66.80;;;;;;5090324;28;20495;-69
2022/04/11 01:27:31;;;;;;;7.87;7.17;;;9.50;66.50;;;;;;5090462;28;20455;-68
2022/04/11 01:29:58;;;;;;;9.93;6.93;;;9.50;67.00;;;;;;5089565;28;20506;-68
2022/04/11 01:32:25;;;;;;;10.30;7.10;;;9.50;67.20;;;;;;5089111;28;20473;-68
2022/04/11 01:34:52;;;;;;;10.30;8.23;;;9.40;67.10;;;;;;5089459;28;20452;-68
2022/04/11 01:37:19;;;;;;;12.10;8.30;;;9.40;67.00;;;;;;5091095;28;20547;-68
2022/04/11 01:39:47;;;;;;;8.60;6.90;;;9.40;67.40;;;;;;5090362;28;20451;-68
2022/04/11 01:42:13;;;;;;;9.50;7.90;;;9.40;67.70;;;;;;5089719;28;20460;-68
2022/04/11 01:44:40;;;;;;;11.10;8.43;;;9.40;67.90;;;;;;5088648;28;20445;-68
2022/04/11 01:47:07;;;;;;;10.73;7.83;;;9.30;68.00;;;;;;5089036;28;20453;-68
2022/04/11 01:49:34;;;;;;;7.97;7.17;;;9.30;68.20;;;;;;5089348;28;20479;-68
2022/04/11 01:52:01;;;;;;;8.83;7.93;;;9.30;68.70;;;;;;5090052;28;20543;-68
2022/04/11 01:54:28;;;;;;;13.13;7.77;;;9.20;68.70;;;;;;5089808;28;20811;-68
2022/04/11 01:56:56;;;;;;;10.20;7.57;;;9.20;69.00;;;;;;5089951;28;20452;-68
2022/04/11 01:59:23;;;;;;;8.90;8.00;;;9.20;69.30;;;;;;5090245;28;20446;-68
2022/04/11 02:01:49;;;;;;;8.80;7.50;;;9.20;69.50;;;;;;5089599;28;20862;-68
2022/04/11 02:04:16;;;;;;;10.40;7.83;;;9.20;69.80;;;;;;5089959;28;20437;-68
2022/04/11 02:06:43;;;;;;;10.73;7.67;;;9.20;70.00;;;;;;5089503;28;20460;-68
2022/04/11 02:09:10;;;;;;;8.90;8.03;;;9.10;70.10;;;;;;5092811;28;20485;-68
2022/04/11 02:11:36;;;;;;;8.60;7.30;;;9.10;70.20;;;;;;5094264;28;20465;-68
2022/04/11 02:14:05;;;;;;;13.57;7.20;;;9.10;70.20;;;;;;5092169;28;20451;-68
2022/04/11 02:16:31;;;;;;;8.43;7.47;;;9.10;70.40;;;;;;5089880;28;20441;-68
2022/04/11 02:18:58;;;;;;;12.43;8.97;;;9.10;70.70;;;;;;5089443;28;20452;-68
2022/04/11 02:21:25;;;;;;;13.80;8.40;;;9.10;70.80;;;;;;5089910;28;20479;-68
2022/04/11 02:23:51;;;;;;;10.83;8.47;;;9.10;70.80;;;;;;5089920;28;20444;-68
2022/04/11 02:26:18;;;;;;;15.00;9.33;;;9.10;71.00;;;;;;5089263;28;20443;-68
2022/04/11 02:28:45;;;;;;;9.27;8.17;;;9.10;71.50;;;;;;5089660;28;20435;-68
2022/04/11 02:31:13;;;;;;;12.50;8.47;;;9.00;71.70;;;;;;5089145;28;20474;-68
2022/04/11 02:33:40;;;;;;;13.63;7.90;;;9.00;71.90;;;;;;5088971;28;21019;-68
2022/04/11 02:36:07;;;;;;;15.33;8.13;;;9.00;72.00;;;;;;5087988;28;20452;-68
2022/04/11 02:38:33;;;;;;;8.47;7.67;;;9.00;71.90;;;;;;5088587;28;20445;-68
2022/04/11 02:41:00;;;;;;;10.13;8.10;;;9.00;71.80;;;;;;5089332;28;20476;-68
2022/04/11 02:43:27;;;;;;;9.13;8.00;;;8.90;71.90;;;;;;5089274;28;20935;-68
2022/04/11 02:45:54;;;;;;;8.37;7.47;;;8.90;72.00;;;;;;5089134;28;20464;-68
2022/04/11 02:48:22;;;;;;;8.83;7.97;;;8.90;72.50;;;;;;5088939;28;20456;-68
2022/04/11 02:50:48;;;;;;;10.97;8.10;;;8.90;73.00;;;;;;5089408;28;20499;-68
2022/04/11 02:53:15;;;;;;;9.57;7.30;;;8.90;73.00;;;;;;5089070;28;20441;-68
2022/04/11 02:55:42;;;;;;;10.60;7.70;;;8.90;73.20;;;;;;5091798;28;20450;-68
2022/04/11 02:58:09;;;;;;;8.40;7.40;;;8.90;73.30;;;;;;5092564;28;20453;-68
2022/04/11 03:00:35;;;;;;;8.03;6.93;;;8.80;73.20;;;;;;5094291;28;20440;-68
2022/04/11 03:03:03;;;;;;;7.93;7.13;;;8.80;73.40;;;;;;5093504;28;20456;-68
2022/04/11 03:05:34;;;;;;;8.10;7.30;;;8.80;73.70;;;;;;5094002;28;20513;-68
2022/04/11 03:08:01;;;;;;;8.17;7.37;;;8.80;74.30;;;;;;5093120;28;20438;-68
2022/04/11 03:10:27;;;;;;;9.43;7.07;;;8.70;74.50;;;;;;5093271;28;20491;-68
2022/04/11 03:12:54;;;;;;;8.87;7.13;;;8.70;74.60;;;;;;5092416;28;20951;-68
2022/04/11 03:15:21;;;;;;;8.17;6.53;;;8.70;74.70;;;;;;5091951;28;20461;-68
2022/04/11 03:17:48;;;;;;;10.30;6.90;;;8.70;74.90;;;;;;5093033;28;20434;-68
2022/04/11 03:20:15;;;;;;;9.30;6.80;;;8.70;75.20;;;;;;5092791;28;20455;-68
2022/04/11 03:22:43;;;;;;;9.40;7.50;;;8.60;75.30;;;;;;5092666;28;20468;-68
2022/04/11 03:25:10;;;;;;;13.03;7.60;;;8.60;75.40;;;;;;5092398;28;20451;-68
2022/04/11 03:27:37;;;;;;;10.33;8.10;;;8.60;75.70;;;;;;5092219;28;20472;-68
2022/04/11 03:30:04;;;;;;;11.10;7.87;;;8.60;76.10;;;;;;5092519;28;20480;-68
2022/04/11 03:32:32;;;;;;;8.77;7.70;;;8.60;76.20;;;;;;5091730;28;20469;-68
2022/04/11 03:34:59;;;;;;;11.20;8.50;;;8.60;76.40;;;;;;5092190;28;20453;-68
2022/04/11 03:37:26;;;;;;;7.83;6.90;;;8.50;76.50;;;;;;5092600;28;20459;-68
2022/04/11 03:39:54;;;;;;;8.67;6.60;;;8.50;76.70;;;;;;5091593;28;20444;-68
2022/04/11 03:42:20;;;;;;;12.87;8.30;;;8.50;77.20;;;;;;5092044;28;20473;-68
2022/04/11 03:44:47;;;;;;;9.27;8.33;;;8.50;77.30;;;;;;5092096;28;20464;-68
2022/04/11 03:47:14;;;;;;;9.60;8.53;;;8.50;77.60;;;;;;5093154;28;20452;-68
2022/04/11 03:49:41;;;;;;;8.93;8.03;;;8.50;77.60;;;;;;5091977;28;20988;-68
2022/04/11 03:52:09;;;;;;;8.63;7.77;;;8.40;77.80;;;;;;5091823;28;20465;-68
2022/04/11 03:54:36;;;;;;;12.90;8.67;;;8.40;78.10;;;;;;5092171;28;20472;-68
2022/04/11 03:57:04;;;;;;;11.03;7.97;;;8.40;78.10;;;;;;5092357;28;20806;-68
2022/04/11 03:59:31;;;;;;;11.53;8.17;;;8.40;78.30;;;;;;5092172;28;20437;-68
2022/04/11 04:01:58;;;;;;;10.90;8.13;;;8.30;78.60;;;;;;5092365;28;20472;-68
2022/04/11 04:04:24;;;;;;;10.10;6.73;;;8.30;78.90;;;;;;5091539;28;20446;-68
2022/04/11 04:06:51;;;;;;;10.30;7.67;;;8.20;78.90;;;;;;5091685;28;20512;-68
2022/04/11 04:09:18;;;;;;;8.43;7.10;;;8.20;79.10;;;;;;5091417;28;20432;-68
2022/04/11 04:11:45;;;;;;;7.13;6.10;;;8.20;79.20;;;;;;5091330;28;20465;-68
2022/04/11 04:14:13;;;;;;;9.17;6.87;;;8.20;79.30;;;;;;5091905;28;20455;-68
2022/04/11 04:16:39;;;;;;;8.73;5.83;;;8.10;79.70;;;;;;5091662;28;20494;-68
2022/04/11 04:19:06;;;;;;;7.70;6.50;;;8.10;79.90;;;;;;5084758;28;20457;-69
2022/04/11 04:21:33;;;;;;;8.13;5.97;;;8.10;80.00;;;;;;5075031;28;20479;-69
2022/04/11 04:24:00;;;;;;;9.47;6.67;;;8.10;79.80;;;;;;5074690;28;20936;-69
2022/04/11 04:26:27;;;;;;;6.87;5.90;;;8.00;79.80;;;;;;5075105;28;20459;-69
2022/04/11 04:28:54;;;;;;;7.93;5.90;;;8.00;79.70;;;;;;5074949;28;20461;-69
2022/04/11 04:31:22;;;;;;;9.10;6.43;;;8.00;79.80;;;;;;5074735;28;20511;-69
2022/04/11 04:33:48;;;;;;;6.47;5.77;;;8.00;79.60;;;;;;5074974;28;20505;-68
2022/04/11 04:36:15;;;;;;;7.53;5.90;;;8.00;79.50;;;;;;5074909;28;20456;-69
2022/04/11 04:38:42;;;;;;;7.47;6.57;;;8.00;79.60;;;;;;5074705;28;20453;-69
2022/04/11 04:41:09;;;;;;;6.80;6.20;;;8.00;79.50;;;;;;5074613;28;20472;-69
2022/04/11 04:43:36;;;;;;;6.33;5.80;;;8.00;79.30;;;;;;5074532;28;20939;-69
2022/04/11 04:46:03;;;;;;;7.03;5.90;;;8.00;79.00;;;;;;5074413;28;20456;-69
2022/04/11 04:48:31;;;;;;;12.47;6.47;;;8.00;78.90;;;;;;5074110;28;20928;-69
2022/04/11 04:50:57;;;;;;;6.13;5.53;;;8.00;78.70;;;;;;5074215;28;20485;-69
2022/04/11 04:53:24;;;;;;;7.80;5.70;;;7.90;78.30;;;;;;5074612;28;20451;-69
2022/04/11 04:55:51;;;;;;;9.13;5.70;;;7.90;78.30;;;;;;5074198;28;20445;-69
2022/04/11 04:58:17;;;;;;;13.73;5.63;;;7.90;78.50;;;;;;5073962;28;20943;-69
2022/04/11 05:00:44;;;;;;;7.40;5.40;;;7.90;78.80;;;;;;5073646;28;20821;-69
2022/04/11 05:03:11;;;;;;;7.40;5.40;;;7.80;78.80;;;;;;5074257;28;20834;-69
2022/04/11 05:05:39;;;;;;;6.87;5.13;;;7.80;78.90;;;;;;5074094;28;20523;-68
2022/04/11 05:08:08;;;;;;;4.83;4.30;;;7.80;79.20;;;;;;5074093;28;20413;-68
2022/04/11 05:10:34;;;;;;;6.47;5.43;;;7.80;79.30;;;;;;5073725;28;20484;-68
2022/04/11 05:13:01;;;;;;;8.00;6.00;;;7.80;79.50;;;;;;5074482;28;20452;-68
2022/04/11 05:15:29;;;;;;;6.30;5.40;;;7.80;79.50;;;;;;5073876;28;20514;-69
2022/04/11 05:17:55;;;;;;;8.77;5.80;;;7.80;79.30;;;;;;5073325;28;20502;-69
2022/04/11 05:20:22;;;;;;;7.90;5.60;;;7.80;79.30;;;;;;5073694;28;20460;-69
2022/04/11 05:22:50;;;;;;;10.57;6.93;;;7.70;79.40;;;;;;5073636;28;20477;-69
2022/04/11 05:25:17;;;;;;;9.13;5.90;;;7.70;79.70;;;;;;5073848;28;20471;-69
2022/04/11 05:27:44;;;;;;;7.43;5.50;;;7.70;79.50;;;;;;5074035;28;20448;-69
2022/04/11 05:30:11;;;;;;;11.57;6.27;;;7.70;79.80;;;;;;5073695;28;20472;-69
2022/04/11 05:32:38;;;;;;;7.70;5.27;;;7.70;79.90;;;;;;5073744;28;20483;-69
2022/04/11 05:35:06;;;;;;;10.13;5.67;;;7.70;80.10;;;;;;5073854;28;20445;-69
2022/04/11 05:37:33;;;;;;;6.30;5.70;;;7.70;80.20;;;;;;5073138;28;20461;-70
2022/04/11 05:40:01;;;;;;;9.63;6.47;;;7.70;80.10;;;;;;5074161;28;20433;-69
2022/04/11 05:42:28;;;;;;;7.47;5.80;;;7.80;80.30;;;;;;5073720;28;20469;-69
2022/04/11 05:44:55;;;;;;;7.53;5.23;;;7.80;80.60;;;;;;5073668;28;20848;-69
2022/04/11 05:47:22;;;;;;;8.70;5.57;;;7.80;80.60;;;;;;5073600;28;20453;-69
2022/04/11 05:49:48;;;;;;;7.73;6.30;;;7.80;81.40;;;;;;5073457;28;20449;-69
2022/04/11 05:52:16;;;;;;;6.20;5.53;;;7.80;80.90;;;;;;5073372;28;20465;-69
2022/04/11 05:54:43;;;;;;;12.97;6.60;;;7.90;81.30;;;;;;5073351;28;20449;-69
2022/04/11 05:57:11;;;;;;;10.30;6.37;;;7.90;81.30;;;;;;5073377;28;20798;-69
2022/04/11 05:59:38;;;;;;;6.00;5.40;;;8.00;81.00;;;;;;5073126;28;20462;-69
2022/04/11 06:02:05;;;;;;;9.30;6.30;;;8.10;80.70;;;;;;5073362;28;20464;-69
2022/04/11 06:04:32;;;;;;;13.03;6.37;;;8.10;80.50;;;;;;5073412;28;20476;-69
2022/04/11 06:06:59;;;;;;;6.10;5.40;;;8.10;80.30;;;;;;5073478;28;20452;-69
2022/04/11 06:09:26;;;;;;;8.03;4.93;;;8.20;80.30;;;;;;5073222;28;20440;-69
2022/04/11 06:11:52;;;;;;;5.80;5.10;;;8.30;80.50;;;;;;5073210;28;20491;-69
2022/04/11 06:14:20;;;;;;;6.80;5.07;;;8.30;79.40;;;;;;5072937;28;20965;-69
2022/04/11 06:16:47;;;;;;;8.47;5.20;;;8.40;79.30;;;;;;5072962;28;20958;-69
2022/04/11 06:19:14;;;;;;;5.73;5.10;;;8.40;79.90;;;;;;5073374;28;20468;-69
2022/04/11 06:21:41;;;;;;;8.33;6.57;;;8.50;79.10;;;;;;5073511;28;20514;-69
2022/04/11 06:24:08;;;;;;;10.00;4.50;;;8.60;78.80;;;;;;5073473;28;20447;-69
2022/04/11 06:26:35;;;;;;;6.50;4.50;;;8.60;78.50;;;;;;5073153;28;20967;-69
2022/04/11 06:29:02;;;;;;;11.93;4.87;;;8.70;78.20;;;;;;5073216;28;20457;-69
2022/04/11 06:31:30;;;;;;;5.70;4.47;;;8.80;78.20;;;;;;5077242;28;20488;-69
2022/04/11 06:33:57;;;;;;;5.37;4.20;;;8.80;77.90;;;;;;5077186;28;20456;-69
2022/04/11 06:36:24;;;;;;;9.37;4.43;;;8.90;77.70;;;;;;5077296;28;20466;-69
2022/04/11 06:38:51;;;;;;;6.63;4.30;;;9.00;77.70;;;;;;5076963;28;20444;-69
2022/04/11 06:41:18;;;;;;;6.73;3.70;;;9.10;77.20;;;;;;5076697;28;20850;-69
2022/04/11 06:43:45;;;;;;;9.10;4.57;;;9.10;76.00;;;;;;5076889;28;20449;-69
2022/04/11 06:46:12;;;;;;;5.67;4.33;;;9.20;75.90;;;;;;5077096;28;20452;-69
2022/04/11 06:48:41;;;;;;;5.40;4.30;;;9.30;76.40;;;;;;5076445;28;20959;-69
2022/04/11 06:51:07;;;;;;;6.70;4.30;;;9.40;76.40;;;;;;5076731;28;20492;-69
2022/04/11 06:53:34;;;;;;;5.80;4.60;;;9.50;76.20;;;;;;5076432;28;20970;-69
2022/04/11 06:56:01;;;;;;;4.67;3.87;;;9.60;76.10;;;;;;5076969;28;20452;-69
2022/04/11 06:58:28;;;;;;;5.77;3.80;;;9.70;75.70;;;;;;5076663;28;20451;-69
2022/04/11 07:00:55;;;;;;;5.17;3.77;;;9.80;75.60;;;;;;5076654;28;20469;-69
2022/04/11 07:03:21;;;;;;;6.97;4.53;;;10.00;74.20;;;;;;5076560;28;20825;-69
2022/04/11 07:05:50;;;;;;;4.87;4.47;;;10.10;73.90;;;;;;5076459;28;20448;-69
2022/04/11 07:08:16;;;;;;;7.07;3.93;;;10.20;73.30;;;;;;5076619;28;20452;-69
2022/04/11 07:10:45;;;;;;;5.33;3.60;;;10.30;73.00;;;;;;5075922;28;20535;-69
2022/04/11 07:13:11;;;;;;;7.33;4.47;;;10.40;72.50;;;;;;5076269;28;20453;-69
2022/04/11 07:15:38;;;;;;;4.33;3.90;;;10.60;72.30;;;;;;5076267;28;20440;-69
2022/04/11 07:18:05;;;;;;;4.97;4.10;;;10.70;71.20;;;;;;5075933;28;20452;-69
2022/04/11 07:20:32;;;;;;;6.40;3.90;;;10.80;70.80;;;;;;5075873;28;20860;-69
2022/04/11 07:23:00;;;;;;;5.00;3.90;;;10.90;70.10;;;;;;5076225;28;20441;-69
2022/04/11 07:25:28;;;;;;;5.23;4.17;;;10.90;69.50;;;;;;5076133;28;20456;-69
2022/04/11 07:27:56;;;;;;;7.67;4.30;;;11.10;69.70;;;;;;5076091;28;20457;-68
2022/04/11 07:30:23;;;;;;;6.00;4.60;;;11.20;69.20;;;;;;5076138;28;20460;-69
2022/04/11 07:32:50;;;;;;;6.93;4.43;;;11.30;68.80;;;;;;5075798;28;20480;-69
2022/04/11 07:35:17;;;;;;;7.53;5.10;;;11.40;67.80;;;;;;5076066;28;20440;-69
2022/04/11 07:37:43;;;;;;;4.63;3.90;;;11.60;67.80;;;;;;5076014;28;20448;-69
2022/04/11 07:40:12;;;;;;;6.63;4.43;;;11.70;68.00;;;;;;5075443;28;20455;-69
2022/04/11 07:42:39;;;;;;;7.20;5.50;;;11.90;66.80;;;;;;5075606;28;21029;-69
2022/04/11 07:45:07;;;;;;;7.63;4.63;;;12.00;66.00;;;;;;5075953;28;20448;-69
2022/04/11 07:47:33;;;;;;;8.60;4.73;;;12.20;64.80;;;;;;5075919;28;20448;-69
2022/04/11 07:50:00;;;;;;;7.03;5.33;;;12.30;63.90;;;;;;5075977;28;20436;-69
2022/04/11 07:52:27;;;;;;;5.30;4.10;;;12.50;63.80;;;;;;5075710;28;20492;-69
2022/04/11 07:54:54;;;;;;;6.63;5.40;;;12.60;63.80;;;;;;5075813;28;20445;-69
2022/04/11 07:57:22;;;;;;;4.83;4.43;;;12.80;62.90;;;;;;5075692;28;20456;-69
2022/04/11 07:59:49;;;;;;;6.03;4.57;;;13.00;62.40;;;;;;5075611;28;20449;-69
2022/04/11 08:02:23;;;;;;;11.80;4.70;;;13.20;61.50;;;;;;5075658;28;20461;-69
2022/04/11 08:04:50;;;;;;;9.07;5.13;;;13.30;61.30;;;;;;5075782;28;20486;-69
2022/04/11 08:07:17;;;;;;;8.27;4.93;;;13.50;60.10;;;;;;5075706;28;20465;-69
2022/04/11 08:09:43;;;;;;;5.97;4.30;;;13.70;59.30;;;;;;5075424;28;20457;-69
2022/04/11 08:12:11;;;;;;;9.60;4.73;;;13.80;59.20;;;;;;5075096;28;20491;-69
2022/04/11 08:14:39;;;;;;;6.40;4.00;;;13.90;58.50;;;;;;5075178;28;20452;-69
2022/04/11 08:17:05;;;;;;;5.93;4.37;;;14.10;58.60;;;;;;5075434;28;20452;-69
2022/04/11 08:19:32;;;;;;;10.20;4.60;;;14.30;58.00;;;;;;5074793;28;21000;-70
2022/04/11 08:21:59;;;;;;;8.27;4.87;;;14.50;58.10;;;;;;5075141;28;20469;-70
2022/04/11 08:24:26;;;;;;;8.20;4.90;;;14.70;57.30;;;;;;5075177;28;20448;-70
2022/04/11 08:26:53;;;;;;;6.60;4.43;;;14.80;56.70;;;;;;5075180;28;20483;-70
2022/04/11 08:29:20;;;;;;;5.00;4.47;;;15.00;54.70;;;;;;5075184;28;20479;-70
2022/04/11 08:31:48;;;;;;;6.77;4.90;;;15.10;54.50;;;;;;5074991;28;20492;-70
2022/04/11 08:34:15;;;;;;;9.70;4.57;;;15.20;54.00;;;;;;5074615;28;20959;-70
2022/04/11 08:36:43;;;;;;;4.47;4.07;;;15.30;54.20;;;;;;5074977;28;20479;-70
2022/04/11 08:39:10;;;;;;;7.57;4.17;;;15.50;54.20;;;;;;5074893;28;20543;-70
2022/04/11 08:41:38;;;;;;;5.57;4.60;;;15.80;53.30;;;;;;5074572;28;20495;-70
2022/04/11 08:44:06;;;;;;;5.63;4.03;;;16.00;52.60;;;;;;5074814;28;20433;-70
2022/04/11 08:46:34;;;;;;;6.47;4.43;;;16.20;52.20;;;;;;5074742;28;20480;-70
2022/04/11 08:49:04;;;;;;;5.83;4.90;;;16.40;51.90;;;;;;5074592;28;20456;-70
2022/04/11 08:51:33;;;;;;;7.47;4.77;;;16.50;51.10;;;;;;5074921;28;20492;-70
2022/04/11 08:54:01;;;;;;;5.07;4.67;;;16.70;50.70;;;;;;5074205;28;20453;-70
2022/04/11 08:56:28;;;;;;;8.47;5.20;;;16.90;50.40;;;;;;5074606;28;20429;-70
2022/04/11 08:58:55;;;;;;;6.67;4.67;;;17.00;49.50;;;;;;5074082;28;20928;-70
2022/04/11 09:01:22;;;;;;;6.40;4.90;;;17.20;49.20;;;;;;5074388;28;20468;-70
2022/04/11 09:03:50;;;;;;;5.87;5.37;;;17.40;48.80;;;;;;5074366;28;20832;-70
2022/04/11 09:06:19;;;;;;;6.67;6.00;;;17.60;47.40;;;;;;5074007;28;20434;-70
2022/04/11 09:08:50;;;;;;;6.27;5.30;;;17.70;45.40;;;;;;5074306;28;20460;-70
2022/04/11 09:11:30;;;;;;;6.80;4.40;;;17.80;46.00;;;;;;5073954;28;20491;-70
2022/04/11 09:13:58;;;;;;;9.70;4.80;;;18.00;45.50;;;;;;5074299;28;20433;-70
2022/04/11 09:16:25;;;;;;;4.47;4.07;;;18.00;44.40;;;;;;5074066;28;20452;-70
2022/04/11 09:18:53;;;;;;;5.70;5.10;;;18.10;45.00;;;;;;5073898;28;20460;-70
2022/04/11 09:21:23;;;;;;;5.70;4.20;;;18.20;43.50;;;;;;5074238;28;20468;-70
2022/04/11 09:23:51;;;;;;;6.83;4.90;;;18.40;43.30;;;;;;5074504;28;20518;-70
2022/04/11 09:26:22;;;;;;;5.83;4.00;;;18.40;40.40;;;;;;5073964;28;20429;-70
2022/04/11 09:29:02;;;;;;;6.77;3.90;;;18.20;40.50;;;;;;5073956;28;20488;-70
2022/04/11 09:31:29;;;;;;;7.27;3.53;;;17.90;40.80;;;;;;5073544;28;20484;-70
2022/04/11 09:33:56;;;;;;;4.93;3.77;;;17.90;42.10;;;;;;5074180;28;20429;-70
2022/04/11 09:36:24;;;;;;;4.73;3.40;;;17.90;41.50;;;;;;5073903;28;20452;-70
2022/04/11 09:38:58;;;;;;;6.60;3.77;;;17.90;40.00;;;;;;5074124;28;20449;-69
2022/04/11 09:41:29;;;;;;;4.20;2.97;;;18.00;40.80;;;;;;5073704;28;20563;-69
2022/04/11 09:43:56;;;;;;;5.20;3.37;;;18.20;41.40;;;;;;5074049;28;20429;-69
2022/04/11 09:46:23;;;;;;;4.93;3.70;;;18.50;42.20;;;;;;5075210;28;20494;-69
2022/04/11 09:48:54;;;;;;;5.63;3.37;;;18.60;38.60;;;;;;5074919;28;20478;-69
2022/04/11 09:51:21;;;;;;;5.37;3.70;;;18.60;38.70;;;;;;5075714;28;20986;-69
2022/04/11 09:53:49;;;;;;;3.40;3.10;;;18.70;39.90;;;;;;5076688;28;20475;-70
2022/04/11 09:56:19;;;;;;;7.03;3.20;;;19.00;40.80;;;;;;5077295;28;20452;-69
2022/04/11 09:58:47;;;;;;;4.30;2.77;;;19.30;38.60;;;;;;5079688;28;20429;-69
2022/04/11 10:01:15;;;;;;;3.40;2.47;;;19.50;38.30;;;;;;5078396;28;20460;-69
2022/04/11 10:03:42;;;;;;;2.43;2.23;;;19.80;38.70;;;;;;5074233;28;21066;-70
2022/04/11 10:06:13;;;;;;;3.30;2.40;;;20.20;38.20;;;;;;5073850;28;20448;-70
2022/04/11 10:08:40;;;;;;;8.10;2.80;;;20.60;37.50;;;;;;5073540;28;20437;-70
2022/04/11 10:11:09;;;;;;;5.90;2.80;;;20.90;35.40;;;;;;5073610;28;20472;-69
2022/04/11 10:13:37;;;;;;;3.60;2.87;;;21.30;36.30;;;;;;5073282;28;20830;-69
2022/04/11 10:16:06;;;;;;;6.50;2.87;;;21.70;35.20;;;;;;5073286;28;20872;-69
2022/04/11 10:18:34;;;;;;;7.13;2.87;;;22.10;34.00;;;;;;5073022;28;20452;-72
2022/04/11 10:21:05;;;;;;;5.13;2.70;;;22.50;33.40;;;;;;5073356;28;20530;-69
2022/04/11 10:23:35;;;;;;;2.93;2.63;;;22.80;32.20;;;;;;5073372;28;20471;-70
2022/04/11 10:26:13;;;;;;;4.23;2.97;;;23.30;32.10;;;;;;5073056;28;20819;-70
2022/04/11 10:28:45;;;;;;;3.30;2.80;;;23.70;31.30;;;;;;5073354;28;20452;-70
2022/04/11 10:31:14;;;;;;;2.83;2.63;;;24.10;30.20;;;;;;5073185;28;20480;-70
2022/04/11 10:33:46;;;;;;;4.47;2.93;;;24.60;29.30;;;;;;5072980;28;21031;-70
2022/04/11 10:36:32;;;;;;;17.03;4.07;;;24.80;27.80;;;;;;5073675;28;20437;-70
2022/04/11 10:39:26;;;;;;;4.77;2.50;;;25.10;27.80;;;;;;5073148;28;20452;-70
2022/04/11 10:42:09;;;;;;;4.17;2.20;;;25.60;27.00;;;;;;5059251;28;20480;-70
2022/04/11 10:44:38;;;;;;;3.67;2.23;;;26.10;26.50;;;;;;5073288;28;20849;-70
2022/04/11 10:47:29;;;;;;;3.10;2.80;;;26.50;25.60;;;;;;5073119;28;20463;-69
2022/04/11 10:50:22;;;;;;;5.63;2.53;;;27.10;24.80;;;;;;5072977;28;20466;-70
2022/04/11 10:53:07;;;;;;;2.90;2.57;;;27.40;24.40;;;;;;5072750;28;20514;-70
2022/04/11 10:55:34;;;;;;;5.30;2.43;;;27.70;23.20;;;;;;5070406;28;20526;-70
2022/04/11 10:58:01;;;;;;;2.40;2.00;;;27.70;22.80;;;;;;5072474;28;20806;-70
2022/04/11 11:00:31;;;;;;;2.40;2.20;;;27.90;23.20;;;;;;5072743;28;20543;-70
2022/04/11 11:03:13;;;;;;;2.53;2.33;;;28.30;22.60;;;;;;5072581;28;20433;-70
2022/04/11 11:05:41;;;;;;;3.60;2.47;;;28.70;23.00;;;;;;5072646;28;20837;-70
2022/04/11 11:08:35;;;;;;;4.30;2.60;;;29.00;22.80;;;;;;5072731;28;20448;-70
2022/04/11 11:11:20;;;;;;;4.90;2.80;;;29.40;22.20;;;;;;5072653;28;20500;-69
2022/04/11 11:13:48;;;;;;;4.90;2.30;;;29.50;20.50;;;;;;5072902;28;20429;-69
2022/04/11 11:16:39;;;;;;;3.43;2.80;;;29.20;20.20;;;;;;5074498;28;20441;-68
2022/04/11 11:19:17;;;;;;;3.90;2.80;;;28.80;20.90;;;;;;5076002;28;20468;-69
2022/04/11 11:22:02;;;;;;;3.90;2.90;;;28.90;22.20;;;;;;5076199;28;20574;-69
2022/04/11 11:24:29;;;;;;;3.60;3.30;;;29.10;21.40;;;;;;5076084;28;20432;-69
2022/04/11 11:26:57;;;;;;;3.73;3.43;;;28.90;19.80;;;;;;5075836;28;20448;-69
2022/04/11 11:29:27;;;;;;;4.37;3.27;;;28.60;20.10;;;;;;5075741;28;21002;-69
2022/04/11 11:31:58;;;;;;;3.50;3.20;;;28.00;20.10;;;;;;5075874;28;20579;-69
2022/04/11 11:34:26;;;;;;;3.30;2.73;;;27.60;21.90;;;;;;5076731;28;20444;-69
2022/04/11 11:36:58;;;;;;;2.87;2.63;;;27.90;23.20;;;;;;5076055;28;20448;-69
2022/04/11 11:39:26;;;;;;;7.07;2.90;;;28.40;22.60;;;;;;5075981;28;20835;-69
2022/04/11 11:41:56;;;;;;;2.90;2.50;;;28.90;22.30;;;;;;5076003;28;20468;-69
2022/04/11 11:44:23;;;;;;;2.73;2.53;;;29.40;21.90;;;;;;5075946;28;20500;-69
2022/04/11 11:46:51;;;;;;;3.60;2.80;;;29.90;21.00;;;;;;5075859;28;20543;-69
2022/04/11 11:49:20;;;;;;;3.00;2.70;;;30.30;20.70;;;;;;5075698;28;20449;-69
2022/04/11 11:51:47;;;;;;;7.07;3.00;;;30.90;20.20;;;;;;5075870;28;20460;-69
2022/04/11 11:54:15;;;;;;;5.80;3.13;;;31.30;20.00;;;;;;5075783;28;20463;-69
2022/04/11 11:56:43;;;;;;;3.20;2.97;;;31.60;20.10;;;;;;5076481;28;20506;-70
2022/04/11 11:59:09;;;;;;;4.90;3.03;;;31.90;19.80;;;;;;5075693;28;20452;-69
2022/04/11 12:01:36;;;;;;;3.97;2.90;;;32.40;19.80;;;;;;5075832;28;20464;-70
2022/04/11 12:04:19;;;;;;;2.77;2.57;;;32.80;19.60;;;;;;5075335;28;21002;-70
2022/04/11 12:06:54;;;;;;;4.50;4.10;;;33.30;18.90;;;;;;5075738;28;20425;-70
2022/04/11 12:09:22;;;;;;;3.20;2.93;;;33.80;18.00;;;;;;5075714;28;20432;-70
2022/04/11 12:11:49;;;;;;;5.17;3.50;;;34.10;17.60;;;;;;5075159;28;20550;-70
2022/04/11 12:14:16;;;;;;;3.77;3.30;;;34.50;17.90;;;;;;5075480;28;20437;-70
2022/04/11 12:16:58;;;;;;;3.60;3.30;;;34.70;16.20;;;;;;5075733;28;20447;-70
2022/04/11 12:19:35;;;;;;;3.43;2.80;;;34.80;17.00;;;;;;5075224;28;20459;-70
2022/04/11 12:22:14;;;;;;;4.93;2.63;;;35.00;16.70;;;;;;5075121;28;20487;-70
2022/04/11 12:24:41;;;;;;;4.80;3.07;;;35.20;16.50;;;;;;5075146;28;20432;-70
2022/04/11 12:27:13;;;;;;;5.77;3.37;;;35.30;15.60;;;;;;5073965;28;20444;-70
2022/04/11 12:29:41;;;;;;;3.20;2.90;;;35.70;15.80;;;;;;5075093;28;20262;-70
2022/04/11 12:32:13;;;;;;;4.33;3.67;;;35.80;15.70;;;;;;5075002;28;20225;-70
2022/04/11 12:34:42;;;;;;;5.53;3.33;;;35.40;13.60;;;;;;5074909;28;20428;-69
2022/04/11 12:37:13;;;;;;;3.43;3.03;;;34.70;15.00;;;;;;5074944;28;20448;-70
2022/04/11 12:39:53;;;;;;;4.23;3.60;;;34.00;15.50;;;;;;5075009;28;20441;-70
2022/04/11 12:42:21;;;;;;;9.23;3.77;;;34.00;16.10;;;;;;5074726;28;20854;-70
2022/04/11 12:44:48;;;;;;;6.37;3.83;;;34.00;16.20;;;;;;5074707;28;20436;-70
2022/04/11 12:47:15;;;;;;;4.43;3.63;;;34.10;16.00;;;;;;5074271;28;20818;-69
2022/04/11 12:49:47;;;;;;;3.80;3.50;;;33.90;15.20;;;;;;5074611;28;20448;-69
2022/04/11 12:52:17;;;;;;;3.40;3.10;;;33.90;15.50;;;;;;5074311;28;20986;-69
2022/04/11 12:54:45;;;;;;;3.63;2.73;;;34.20;16.80;;;;;;5074512;28;20436;-69
2022/04/11 12:57:13;;;;;;;4.60;3.43;;;34.70;16.80;;;;;;5074449;28;20444;-69